TAM8054 SBGR-SCEL
Flight info
| Callsign | TAM8054 |
|---|---|
| Flight time | 3h 48m |
| Altitude | 34000 |
| Route | UBSOD UZ38 ARTUT UM400 CBA UZ105 UMKAL UMKAL7B |
| Aircraft | A21N/M-SDE2E3FGHIRWXY/LB1 |
Departure
| Time | 2026-05-05 20:17 |
|---|---|
| Airport | São Paulo/Guarulhos–Governor André Franco Montoro International Airport (SBGR) |
Arrival
| Time | 2026-05-06 00:05 |
|---|---|
| Airport | Comodoro Arturo Merino Benítez International Airport (SCEL) |
| Time | Latitude | Longitude | Altitude | Speed | Heading |
|---|---|---|---|---|---|
| 2026-05-05 19:59 | -23.42689 | -46.47447 | 2466 ft | 0 kts | 74° |
| 2026-05-05 20:04 | -23.42689 | -46.47449 | 2466 ft | 2 kts | 74° |
| 2026-05-05 20:05 | -23.42696 | -46.47476 | 2468 ft | 4 kts | 77° |
| 2026-05-05 20:05 | -23.42701 | -46.47505 | 2466 ft | 4 kts | 83° |
| 2026-05-05 20:05 | -23.42702 | -46.47534 | 2466 ft | 5 kts | 101° |
| 2026-05-05 20:05 | -23.42692 | -46.47555 | 2468 ft | 4 kts | 158° |
| 2026-05-05 20:06 | -23.42689 | -46.47556 | 2470 ft | 1 kts | 163° |
| 2026-05-05 20:11 | -23.42701 | -46.47553 | 2469 ft | 3 kts | 164° |
| 2026-05-05 20:11 | -23.42727 | -46.47544 | 2469 ft | 4 kts | 164° |
| 2026-05-05 20:12 | -23.42759 | -46.47534 | 2468 ft | 5 kts | 165° |
| 2026-05-05 20:12 | -23.42799 | -46.47523 | 2470 ft | 6 kts | 165° |
| 2026-05-05 20:12 | -23.42843 | -46.47505 | 2470 ft | 7 kts | 159° |
| 2026-05-05 20:12 | -23.42895 | -46.47483 | 2470 ft | 8 kts | 159° |
| 2026-05-05 20:13 | -23.42946 | -46.47506 | 2472 ft | 9 kts | 238° |
| 2026-05-05 20:13 | -23.42966 | -46.47578 | 2468 ft | 11 kts | 254° |
| 2026-05-05 20:13 | -23.42988 | -46.47659 | 2467 ft | 12 kts | 253° |
| 2026-05-05 20:13 | -23.43012 | -46.47747 | 2470 ft | 13 kts | 253° |
| 2026-05-05 20:14 | -23.43038 | -46.47842 | 2469 ft | 14 kts | 253° |
| 2026-05-05 20:14 | -23.43066 | -46.47944 | 2469 ft | 14 kts | 253° |
| 2026-05-05 20:14 | -23.43095 | -46.48052 | 2470 ft | 15 kts | 253° |
| 2026-05-05 20:14 | -23.43126 | -46.48167 | 2470 ft | 16 kts | 253° |
| 2026-05-05 20:15 | -23.43158 | -46.48286 | 2467 ft | 17 kts | 255° |
| 2026-05-05 20:15 | -23.43219 | -46.48391 | 2470 ft | 17 kts | 203° |
| 2026-05-05 20:15 | -23.43337 | -46.48358 | 2467 ft | 18 kts | 159° |
| 2026-05-05 20:15 | -23.43418 | -46.48280 | 2466 ft | 14 kts | 72° |
| 2026-05-05 20:16 | -23.43404 | -46.48243 | 2468 ft | 0 kts | 74° |
| 2026-05-05 20:16 | -23.43359 | -46.48071 | 2467 ft | 59 kts | 73° |
| 2026-05-05 20:16 | -23.43171 | -46.47379 | 2464 ft | 128 kts | 73° |
| 2026-05-05 20:16 | -23.42877 | -46.46295 | 2470 ft | 170 kts | 72° |
| 2026-05-05 20:17 | -23.42491 | -46.44961 | 2703 ft | 192 kts | 72° |
| 2026-05-05 20:17 | -23.42092 | -46.43567 | 3341 ft | 191 kts | 72° |
| 2026-05-05 20:17 | -23.41688 | -46.42168 | 3874 ft | 201 kts | 74° |
| 2026-05-05 20:17 | -23.41251 | -46.40658 | 4289 ft | 217 kts | 74° |
| 2026-05-05 20:18 | -23.40786 | -46.39041 | 4719 ft | 234 kts | 75° |
| 2026-05-05 20:18 | -23.40302 | -46.37275 | 4990 ft | 257 kts | 78° |
| 2026-05-05 20:18 | -23.40238 | -46.35302 | 5473 ft | 267 kts | 102° |
| 2026-05-05 20:18 | -23.40802 | -46.33356 | 6149 ft | 273 kts | 112° |
| 2026-05-05 20:19 | -23.41511 | -46.31427 | 6878 ft | 276 kts | 112° |
| 2026-05-05 20:19 | -23.42223 | -46.29479 | 7595 ft | 278 kts | 111° |
| 2026-05-05 20:19 | -23.42973 | -46.27524 | 8298 ft | 281 kts | 119° |
| 2026-05-05 20:19 | -23.44219 | -46.25894 | 8851 ft | 284 kts | 143° |
| 2026-05-05 20:20 | -23.46018 | -46.25033 | 9255 ft | 286 kts | 171° |
| 2026-05-05 20:20 | -23.48021 | -46.25096 | 9845 ft | 292 kts | 190° |
| 2026-05-05 20:20 | -23.50022 | -46.25573 | 10473 ft | 298 kts | 194° |
| 2026-05-05 20:20 | -23.52050 | -46.26291 | 10813 ft | 316 kts | 203° |
| 2026-05-05 20:21 | -23.53992 | -46.27547 | 11074 ft | 335 kts | 218° |
| 2026-05-05 20:21 | -23.55738 | -46.29327 | 11314 ft | 354 kts | 233° |
| 2026-05-05 20:21 | -23.56863 | -46.31765 | 11558 ft | 371 kts | 254° |
| 2026-05-05 20:21 | -23.57426 | -46.34577 | 11794 ft | 387 kts | 260° |
| 2026-05-05 20:22 | -23.57874 | -46.37530 | 12008 ft | 402 kts | 261° |
| 2026-05-05 20:22 | -23.58359 | -46.40562 | 12325 ft | 410 kts | 259° |
| 2026-05-05 20:22 | -23.58895 | -46.43594 | 12787 ft | 414 kts | 258° |
| 2026-05-05 20:22 | -23.59478 | -46.46675 | 13288 ft | 416 kts | 258° |
| 2026-05-05 20:23 | -23.60084 | -46.49770 | 13824 ft | 419 kts | 258° |
| 2026-05-05 20:23 | -23.60678 | -46.52888 | 14275 ft | 421 kts | 259° |
| 2026-05-05 20:23 | -23.61191 | -46.56039 | 14678 ft | 423 kts | 260° |
| 2026-05-05 20:23 | -23.61674 | -46.59219 | 15076 ft | 426 kts | 261° |
| 2026-05-05 20:24 | -23.62149 | -46.62420 | 15490 ft | 429 kts | 260° |
| 2026-05-05 20:24 | -23.62804 | -46.65601 | 15883 ft | 430 kts | 251° |
| 2026-05-05 20:24 | -23.64143 | -46.68507 | 16235 ft | 431 kts | 236° |
| 2026-05-05 20:24 | -23.65910 | -46.71170 | 16588 ft | 433 kts | 232° |
| 2026-05-05 20:25 | -23.67714 | -46.73815 | 16939 ft | 435 kts | 233° |
| 2026-05-05 20:25 | -23.69461 | -46.76520 | 17278 ft | 437 kts | 233° |
| 2026-05-05 20:25 | -23.71360 | -46.79115 | 17597 ft | 439 kts | 225° |
| 2026-05-05 20:25 | -23.73721 | -46.81212 | 17898 ft | 440 kts | 212° |
| 2026-05-05 20:26 | -23.76379 | -46.82876 | 18205 ft | 442 kts | 207° |
| 2026-05-05 20:26 | -23.79110 | -46.84441 | 18509 ft | 444 kts | 207° |
| 2026-05-05 20:26 | -23.81840 | -46.86032 | 18793 ft | 446 kts | 208° |
| 2026-05-05 20:26 | -23.84557 | -46.87688 | 19094 ft | 447 kts | 209° |
| 2026-05-05 20:27 | -23.87270 | -46.89385 | 19387 ft | 449 kts | 210° |
| 2026-05-05 20:27 | -23.89977 | -46.91102 | 19707 ft | 451 kts | 210° |
| 2026-05-05 20:27 | -23.92693 | -46.92832 | 20042 ft | 452 kts | 210° |
| 2026-05-05 20:27 | -23.95417 | -46.94563 | 20373 ft | 454 kts | 210° |
| 2026-05-05 20:28 | -23.98152 | -46.96294 | 20694 ft | 456 kts | 210° |
| 2026-05-05 20:28 | -24.00906 | -46.98035 | 21056 ft | 458 kts | 210° |
| 2026-05-05 20:28 | -24.03678 | -46.99789 | 21471 ft | 461 kts | 210° |
| 2026-05-05 20:28 | -24.06461 | -47.01549 | 21897 ft | 463 kts | 210° |
| 2026-05-05 20:29 | -24.09255 | -47.03320 | 22291 ft | 465 kts | 210° |
| 2026-05-05 20:29 | -24.12027 | -47.05079 | 22688 ft | 468 kts | 211° |
| 2026-05-05 20:29 | -24.14850 | -47.06869 | 23061 ft | 470 kts | 211° |
| 2026-05-05 20:29 | -24.17685 | -47.08667 | 23411 ft | 472 kts | 211° |
| 2026-05-05 20:30 | -24.20543 | -47.10480 | 23779 ft | 473 kts | 211° |
| 2026-05-05 20:30 | -24.23384 | -47.12284 | 24170 ft | 472 kts | 211° |
| 2026-05-05 20:30 | -24.26212 | -47.14098 | 24616 ft | 468 kts | 212° |
| 2026-05-05 20:30 | -24.28951 | -47.15993 | 24902 ft | 465 kts | 213° |
| 2026-05-05 20:31 | -24.31668 | -47.17925 | 25191 ft | 465 kts | 214° |
| 2026-05-05 20:31 | -24.34387 | -47.19858 | 25616 ft | 463 kts | 214° |
| 2026-05-05 20:31 | -24.37089 | -47.21767 | 26060 ft | 460 kts | 213° |
| 2026-05-05 20:31 | -24.39755 | -47.23633 | 26504 ft | 458 kts | 213° |
| 2026-05-05 20:32 | -24.42435 | -47.25503 | 26961 ft | 455 kts | 213° |
| 2026-05-05 20:32 | -24.45106 | -47.27372 | 27409 ft | 453 kts | 214° |
| 2026-05-05 20:32 | -24.47755 | -47.29226 | 27827 ft | 451 kts | 214° |
| 2026-05-05 20:32 | -24.50397 | -47.31073 | 28245 ft | 449 kts | 214° |
| 2026-05-05 20:33 | -24.53035 | -47.32915 | 28659 ft | 447 kts | 214° |
| 2026-05-05 20:33 | -24.55654 | -47.34739 | 29076 ft | 445 kts | 214° |
| 2026-05-05 20:33 | -24.58270 | -47.36564 | 29487 ft | 443 kts | 214° |
| 2026-05-05 20:33 | -24.60868 | -47.38377 | 29888 ft | 442 kts | 214° |
| 2026-05-05 20:34 | -24.63462 | -47.40182 | 30276 ft | 440 kts | 214° |
| 2026-05-05 20:34 | -24.65167 | -47.41374 | 30486 ft | 439 kts | 214° |
| 2026-05-05 20:34 | -24.68604 | -47.43779 | 30952 ft | 436 kts | 214° |
| 2026-05-05 20:34 | -24.70299 | -47.44962 | 31174 ft | 435 kts | 214° |
| 2026-05-05 20:35 | -24.72845 | -47.46745 | 31498 ft | 433 kts | 214° |
| 2026-05-05 20:35 | -24.75380 | -47.48524 | 31817 ft | 431 kts | 214° |
| 2026-05-05 20:35 | -24.78725 | -47.50875 | 32142 ft | 430 kts | 214° |
| 2026-05-05 20:36 | -24.82941 | -47.53831 | 32173 ft | 428 kts | 214° |
| 2026-05-05 20:36 | -24.87934 | -47.57327 | 32155 ft | 428 kts | 214° |
| 2026-05-05 20:37 | -24.92951 | -47.60848 | 32156 ft | 427 kts | 214° |
| 2026-05-05 20:37 | -24.97966 | -47.64377 | 32151 ft | 427 kts | 214° |
| 2026-05-05 20:38 | -25.02976 | -47.67905 | 32151 ft | 427 kts | 214° |
| 2026-05-05 20:38 | -25.07984 | -47.71426 | 32153 ft | 427 kts | 214° |
| 2026-05-05 20:39 | -25.12982 | -47.74943 | 32156 ft | 426 kts | 214° |
| 2026-05-05 20:39 | -25.17983 | -47.78468 | 32151 ft | 426 kts | 214° |
| 2026-05-05 20:40 | -25.22978 | -47.81999 | 32149 ft | 426 kts | 214° |
| 2026-05-05 20:40 | -25.27968 | -47.85522 | 32152 ft | 425 kts | 214° |
| 2026-05-05 20:41 | -25.32913 | -47.89020 | 32152 ft | 425 kts | 214° |
| 2026-05-05 20:41 | -25.37902 | -47.92542 | 32148 ft | 425 kts | 214° |
| 2026-05-05 20:42 | -25.42878 | -47.96056 | 32147 ft | 424 kts | 214° |
| 2026-05-05 20:42 | -25.47850 | -47.99587 | 32145 ft | 424 kts | 214° |
| 2026-05-05 20:43 | -25.52817 | -48.03128 | 32144 ft | 424 kts | 214° |
| 2026-05-05 20:43 | -25.57778 | -48.06665 | 32139 ft | 424 kts | 214° |
| 2026-05-05 20:44 | -25.62386 | -48.10678 | 32142 ft | 421 kts | 229° |
| 2026-05-05 20:44 | -25.65381 | -48.16179 | 32141 ft | 422 kts | 245° |
| 2026-05-05 20:45 | -25.68921 | -48.25111 | 32142 ft | 421 kts | 244° |
| 2026-05-05 20:45 | -25.71392 | -48.31013 | 32140 ft | 421 kts | 244° |
| 2026-05-05 20:46 | -25.73873 | -48.36858 | 32144 ft | 421 kts | 244° |
| 2026-05-05 20:46 | -25.76387 | -48.42811 | 32142 ft | 431 kts | 244° |
| 2026-05-05 20:47 | -25.78935 | -48.48895 | 32147 ft | 438 kts | 244° |
| 2026-05-05 20:47 | -25.81532 | -48.55069 | 32145 ft | 444 kts | 244° |
| 2026-05-05 20:48 | -25.84148 | -48.61309 | 32151 ft | 447 kts | 244° |
| 2026-05-05 20:48 | -25.86756 | -48.67544 | 32153 ft | 450 kts | 244° |
| 2026-05-05 20:49 | -25.89127 | -48.73986 | 32233 ft | 451 kts | 250° |
| 2026-05-05 20:49 | -25.90986 | -48.80629 | 32329 ft | 442 kts | 251° |
| 2026-05-05 20:50 | -25.92216 | -48.83657 | 32244 ft | 423 kts | 236° |
| 2026-05-05 20:50 | -25.93980 | -48.86248 | 32203 ft | 419 kts | 231° |
| 2026-05-05 20:50 | -25.97154 | -48.91671 | 32153 ft | 420 kts | 242° |
| 2026-05-05 20:51 | -25.99677 | -48.97541 | 32156 ft | 420 kts | 244° |
| 2026-05-05 20:51 | -26.02096 | -49.03453 | 32161 ft | 420 kts | 244° |
| 2026-05-05 20:52 | -26.04510 | -49.09320 | 32172 ft | 420 kts | 244° |
| 2026-05-05 20:52 | -26.06973 | -49.15208 | 32186 ft | 420 kts | 244° |
| 2026-05-05 20:53 | -26.09427 | -49.21089 | 32184 ft | 419 kts | 244° |
| 2026-05-05 20:53 | -26.11870 | -49.26983 | 32193 ft | 419 kts | 244° |
| 2026-05-05 20:54 | -26.14308 | -49.32873 | 32195 ft | 419 kts | 244° |
| 2026-05-05 20:54 | -26.16743 | -49.38767 | 32192 ft | 419 kts | 244° |
| 2026-05-05 20:55 | -26.19179 | -49.44662 | 32193 ft | 419 kts | 244° |
| 2026-05-05 20:55 | -26.21590 | -49.50519 | 32191 ft | 418 kts | 245° |
| 2026-05-05 20:56 | -26.24011 | -49.56410 | 32195 ft | 418 kts | 245° |
| 2026-05-05 20:56 | -26.26415 | -49.62307 | 32191 ft | 418 kts | 245° |
| 2026-05-05 20:57 | -26.28822 | -49.68216 | 32190 ft | 418 kts | 245° |
| 2026-05-05 20:57 | -26.31227 | -49.74105 | 32192 ft | 418 kts | 245° |
| 2026-05-05 20:58 | -26.33627 | -49.80004 | 32192 ft | 418 kts | 245° |
| 2026-05-05 20:58 | -26.36006 | -49.85862 | 32184 ft | 417 kts | 245° |
| 2026-05-05 20:59 | -26.38411 | -49.91753 | 32188 ft | 417 kts | 245° |
| 2026-05-05 20:59 | -26.40808 | -49.97651 | 32186 ft | 417 kts | 245° |
| 2026-05-05 21:00 | -26.43203 | -50.03545 | 32181 ft | 417 kts | 245° |
| 2026-05-05 21:00 | -26.45604 | -50.09444 | 32187 ft | 416 kts | 245° |
| 2026-05-05 21:01 | -26.48000 | -50.15328 | 32183 ft | 416 kts | 245° |
| 2026-05-05 21:01 | -26.50393 | -50.21212 | 32184 ft | 416 kts | 245° |
| 2026-05-05 21:02 | -26.52767 | -50.27073 | 32187 ft | 419 kts | 245° |
| 2026-05-05 21:02 | -26.55204 | -50.33083 | 32195 ft | 429 kts | 245° |
| 2026-05-05 21:03 | -26.57680 | -50.39210 | 32197 ft | 436 kts | 245° |
| 2026-05-05 21:03 | -26.60149 | -50.45437 | 32196 ft | 439 kts | 246° |
| 2026-05-05 21:04 | -26.62631 | -50.51708 | 32200 ft | 443 kts | 246° |
| 2026-05-05 21:04 | -26.65416 | -50.57848 | 32296 ft | 443 kts | 240° |
| 2026-05-05 21:05 | -26.68599 | -50.63751 | 32407 ft | 443 kts | 238° |
| 2026-05-05 21:05 | -26.71895 | -50.69574 | 32526 ft | 443 kts | 238° |
| 2026-05-05 21:06 | -26.75201 | -50.75344 | 32625 ft | 443 kts | 238° |
| 2026-05-05 21:06 | -26.78537 | -50.81149 | 32707 ft | 443 kts | 238° |
| 2026-05-05 21:07 | -26.80195 | -50.84033 | 32927 ft | 438 kts | 238° |
| 2026-05-05 21:07 | -26.81842 | -50.86898 | 33010 ft | 437 kts | 238° |
| 2026-05-05 21:07 | -26.85149 | -50.92652 | 33005 ft | 439 kts | 238° |
| 2026-05-05 21:08 | -26.88437 | -50.98372 | 33076 ft | 437 kts | 238° |
| 2026-05-05 21:08 | -26.90036 | -51.01155 | 33135 ft | 416 kts | 238° |
| 2026-05-05 21:08 | -26.91370 | -51.03992 | 32644 ft | 411 kts | 249° |
| 2026-05-05 21:09 | -26.93121 | -51.10137 | 32818 ft | 415 kts | 252° |
| 2026-05-05 21:09 | -26.93981 | -51.13222 | 33095 ft | 414 kts | 251° |
| 2026-05-05 21:09 | -26.94875 | -51.16287 | 33391 ft | 412 kts | 251° |
| 2026-05-05 21:10 | -26.95778 | -51.19295 | 33634 ft | 411 kts | 250° |
| 2026-05-05 21:10 | -26.96695 | -51.22329 | 33890 ft | 410 kts | 250° |
| 2026-05-05 21:10 | -26.97603 | -51.25353 | 34125 ft | 409 kts | 250° |
| 2026-05-05 21:10 | -26.98510 | -51.28380 | 34203 ft | 408 kts | 250° |
| 2026-05-05 21:11 | -27.00320 | -51.34412 | 34183 ft | 407 kts | 250° |
| 2026-05-05 21:11 | -27.02124 | -51.40422 | 34170 ft | 407 kts | 250° |
| 2026-05-05 21:12 | -27.03917 | -51.46402 | 34165 ft | 406 kts | 250° |
| 2026-05-05 21:12 | -27.05718 | -51.52421 | 34160 ft | 406 kts | 250° |
| 2026-05-05 21:13 | -27.07509 | -51.58434 | 34163 ft | 406 kts | 250° |
| 2026-05-05 21:13 | -27.09302 | -51.64439 | 34157 ft | 406 kts | 250° |
| 2026-05-05 21:14 | -27.11079 | -51.70416 | 34156 ft | 406 kts | 251° |
| 2026-05-05 21:14 | -27.12858 | -51.76425 | 34150 ft | 406 kts | 251° |
| 2026-05-05 21:15 | -27.14636 | -51.82438 | 34149 ft | 405 kts | 251° |
| 2026-05-05 21:15 | -27.16420 | -51.88439 | 34140 ft | 405 kts | 250° |
| 2026-05-05 21:16 | -27.18620 | -51.94257 | 34138 ft | 404 kts | 245° |
| 2026-05-05 21:16 | -27.20926 | -52.00024 | 34136 ft | 405 kts | 246° |
| 2026-05-05 21:17 | -27.23187 | -52.05816 | 34135 ft | 405 kts | 246° |
| 2026-05-05 21:17 | -27.25434 | -52.11618 | 34130 ft | 404 kts | 246° |
| 2026-05-05 21:18 | -27.27656 | -52.17373 | 34129 ft | 404 kts | 246° |
| 2026-05-05 21:18 | -27.29885 | -52.23172 | 34124 ft | 404 kts | 246° |
| 2026-05-05 21:19 | -27.32112 | -52.28968 | 34129 ft | 403 kts | 246° |
| 2026-05-05 21:19 | -27.34331 | -52.34762 | 34129 ft | 403 kts | 246° |
| 2026-05-05 21:20 | -27.36549 | -52.40551 | 34129 ft | 402 kts | 246° |
| 2026-05-05 21:20 | -27.38759 | -52.46343 | 34132 ft | 403 kts | 246° |
| 2026-05-05 21:21 | -27.40981 | -52.52132 | 34134 ft | 402 kts | 246° |
| 2026-05-05 21:21 | -27.43185 | -52.57907 | 34128 ft | 402 kts | 247° |
| 2026-05-05 21:22 | -27.45391 | -52.63702 | 34131 ft | 402 kts | 247° |
| 2026-05-05 21:22 | -27.47599 | -52.69492 | 34121 ft | 402 kts | 247° |
| 2026-05-05 21:23 | -27.49780 | -52.75241 | 34114 ft | 401 kts | 247° |
| 2026-05-05 21:23 | -27.51975 | -52.81024 | 34110 ft | 402 kts | 247° |
| 2026-05-05 21:24 | -27.53824 | -52.85880 | 34105 ft | 402 kts | 247° |
| 2026-05-05 21:24 | -27.56007 | -52.91628 | 34109 ft | 401 kts | 247° |
| 2026-05-05 21:25 | -27.58189 | -52.97414 | 34109 ft | 401 kts | 247° |
| 2026-05-05 21:25 | -27.60379 | -53.03200 | 34101 ft | 401 kts | 247° |
| 2026-05-05 21:26 | -27.62544 | -53.09010 | 34103 ft | 401 kts | 248° |
| 2026-05-05 21:26 | -27.64723 | -53.14810 | 34092 ft | 401 kts | 247° |
| 2026-05-05 21:27 | -27.66896 | -53.20607 | 34098 ft | 401 kts | 248° |
| 2026-05-05 21:27 | -27.69064 | -53.26401 | 34100 ft | 400 kts | 248° |
| 2026-05-05 21:28 | -27.71222 | -53.32156 | 34097 ft | 400 kts | 248° |
| 2026-05-05 21:28 | -27.73379 | -53.37941 | 34098 ft | 400 kts | 248° |
| 2026-05-05 21:29 | -27.75537 | -53.43733 | 34093 ft | 400 kts | 248° |
| 2026-05-05 21:29 | -27.77692 | -53.49524 | 34090 ft | 400 kts | 248° |
| 2026-05-05 21:30 | -27.79849 | -53.55310 | 34090 ft | 400 kts | 248° |
| 2026-05-05 21:30 | -27.81997 | -53.61107 | 34086 ft | 400 kts | 248° |
| 2026-05-05 21:31 | -27.84148 | -53.66901 | 34084 ft | 400 kts | 248° |
| 2026-05-05 21:31 | -27.86284 | -53.72656 | 34087 ft | 400 kts | 248° |
| 2026-05-05 21:32 | -27.88431 | -53.78458 | 34077 ft | 399 kts | 248° |
| 2026-05-05 21:32 | -27.90570 | -53.84256 | 34083 ft | 399 kts | 248° |
| 2026-05-05 21:33 | -27.92707 | -53.90051 | 34078 ft | 399 kts | 248° |
| 2026-05-05 21:33 | -27.94831 | -53.95821 | 34077 ft | 399 kts | 248° |
| 2026-05-05 21:34 | -27.96972 | -54.01614 | 34067 ft | 399 kts | 248° |
| 2026-05-05 21:34 | -27.99109 | -54.07406 | 34068 ft | 398 kts | 248° |
| 2026-05-05 21:35 | -28.01230 | -54.13206 | 34070 ft | 398 kts | 248° |
| 2026-05-05 21:35 | -28.03347 | -54.19002 | 34068 ft | 398 kts | 248° |
| 2026-05-05 21:36 | -28.05438 | -54.24760 | 34070 ft | 397 kts | 248° |
| 2026-05-05 21:36 | -28.07539 | -54.30552 | 34070 ft | 397 kts | 248° |
| 2026-05-05 21:37 | -28.09641 | -54.36336 | 34064 ft | 397 kts | 248° |
| 2026-05-05 21:37 | -28.11751 | -54.42114 | 34058 ft | 396 kts | 248° |
| 2026-05-05 21:38 | -28.13847 | -54.47885 | 34052 ft | 396 kts | 248° |
| 2026-05-05 21:38 | -28.15936 | -54.53662 | 34044 ft | 396 kts | 248° |
| 2026-05-05 21:39 | -28.18012 | -54.59396 | 34043 ft | 395 kts | 248° |
| 2026-05-05 21:39 | -28.20094 | -54.65168 | 34037 ft | 395 kts | 248° |
| 2026-05-05 21:40 | -28.22174 | -54.70923 | 34037 ft | 394 kts | 248° |
| 2026-05-05 21:40 | -28.24251 | -54.76685 | 34033 ft | 394 kts | 248° |
| 2026-05-05 21:41 | -28.26315 | -54.82437 | 34034 ft | 394 kts | 248° |
| 2026-05-05 21:41 | -28.28374 | -54.88188 | 34028 ft | 393 kts | 248° |
| 2026-05-05 21:42 | -28.30437 | -54.93934 | 34028 ft | 393 kts | 248° |
| 2026-05-05 21:42 | -28.32501 | -54.99678 | 34028 ft | 393 kts | 248° |
| 2026-05-05 21:43 | -28.34540 | -55.05403 | 34024 ft | 393 kts | 249° |
| 2026-05-05 21:43 | -28.36589 | -55.11151 | 34020 ft | 393 kts | 249° |
| 2026-05-05 21:44 | -28.38641 | -55.16897 | 34018 ft | 392 kts | 249° |
| 2026-05-05 21:44 | -28.40685 | -55.22659 | 34016 ft | 393 kts | 249° |
| 2026-05-05 21:45 | -28.42726 | -55.28413 | 34016 ft | 392 kts | 249° |
| 2026-05-05 21:45 | -28.44769 | -55.34168 | 34016 ft | 392 kts | 249° |
| 2026-05-05 21:46 | -28.46804 | -55.39915 | 34015 ft | 392 kts | 249° |
| 2026-05-05 21:46 | -28.48823 | -55.45635 | 34010 ft | 392 kts | 249° |
| 2026-05-05 21:47 | -28.50852 | -55.51379 | 34008 ft | 391 kts | 249° |
| 2026-05-05 21:47 | -28.52879 | -55.57129 | 34004 ft | 391 kts | 249° |
| 2026-05-05 21:48 | -28.54889 | -55.62831 | 34009 ft | 390 kts | 249° |
| 2026-05-05 21:48 | -28.56905 | -55.68558 | 34009 ft | 389 kts | 249° |
| 2026-05-05 21:49 | -28.58915 | -55.74290 | 34000 ft | 389 kts | 249° |
| 2026-05-05 21:49 | -28.60916 | -55.80011 | 34001 ft | 389 kts | 249° |
| 2026-05-05 21:50 | -28.62908 | -55.85728 | 33997 ft | 389 kts | 249° |
| 2026-05-05 21:50 | -28.64906 | -55.91442 | 33996 ft | 388 kts | 249° |
| 2026-05-05 21:51 | -28.66896 | -55.97152 | 33997 ft | 388 kts | 249° |
| 2026-05-05 21:51 | -28.68886 | -56.02863 | 33996 ft | 387 kts | 249° |
| 2026-05-05 21:52 | -28.71846 | -56.11387 | 33990 ft | 387 kts | 249° |
| 2026-05-05 21:53 | -28.73835 | -56.17082 | 33991 ft | 387 kts | 248° |
| 2026-05-05 21:53 | -28.75871 | -56.22754 | 33991 ft | 387 kts | 248° |
| 2026-05-05 21:54 | -28.77910 | -56.28429 | 33988 ft | 386 kts | 248° |
| 2026-05-05 21:54 | -28.79939 | -56.34096 | 33989 ft | 386 kts | 248° |
| 2026-05-05 21:55 | -28.81963 | -56.39766 | 33985 ft | 386 kts | 249° |
| 2026-05-05 21:55 | -28.83973 | -56.45407 | 33987 ft | 386 kts | 249° |
| 2026-05-05 21:56 | -28.85991 | -56.51078 | 33985 ft | 385 kts | 249° |
| 2026-05-05 21:56 | -28.88005 | -56.56742 | 33983 ft | 385 kts | 249° |
| 2026-05-05 21:57 | -28.90019 | -56.62415 | 33983 ft | 385 kts | 249° |
| 2026-05-05 21:57 | -28.92030 | -56.68095 | 33977 ft | 385 kts | 249° |
| 2026-05-05 21:58 | -28.94031 | -56.73765 | 33978 ft | 385 kts | 249° |
| 2026-05-05 21:58 | -28.96018 | -56.79398 | 33979 ft | 385 kts | 249° |
| 2026-05-05 21:59 | -28.98018 | -56.85060 | 33978 ft | 384 kts | 249° |
| 2026-05-05 21:59 | -29.00019 | -56.90737 | 33976 ft | 384 kts | 249° |
| 2026-05-05 22:00 | -29.02011 | -56.96404 | 33975 ft | 384 kts | 249° |
| 2026-05-05 22:00 | -29.03992 | -57.02034 | 33972 ft | 384 kts | 249° |
| 2026-05-05 22:01 | -29.05977 | -57.07691 | 33974 ft | 383 kts | 249° |
| 2026-05-05 22:01 | -29.07958 | -57.13355 | 33974 ft | 383 kts | 249° |
| 2026-05-05 22:02 | -29.09935 | -57.19013 | 33970 ft | 383 kts | 249° |
| 2026-05-05 22:02 | -29.11910 | -57.24672 | 33966 ft | 383 kts | 249° |
| 2026-05-05 22:03 | -29.13881 | -57.30321 | 33964 ft | 382 kts | 249° |
| 2026-05-05 22:03 | -29.15843 | -57.35967 | 33964 ft | 382 kts | 249° |
| 2026-05-05 22:04 | -29.17806 | -57.41619 | 33968 ft | 382 kts | 249° |
| 2026-05-05 22:04 | -29.19768 | -57.47280 | 33961 ft | 382 kts | 249° |
| 2026-05-05 22:05 | -29.21712 | -57.52898 | 33962 ft | 382 kts | 249° |
| 2026-05-05 22:05 | -29.23668 | -57.58555 | 33957 ft | 382 kts | 250° |
| 2026-05-05 22:06 | -29.25673 | -57.64195 | 33959 ft | 383 kts | 248° |
| 2026-05-05 22:06 | -29.27761 | -57.69801 | 33954 ft | 383 kts | 248° |
| 2026-05-05 22:07 | -29.29860 | -57.75410 | 33951 ft | 383 kts | 248° |
| 2026-05-05 22:07 | -29.31953 | -57.81021 | 33952 ft | 383 kts | 248° |
| 2026-05-05 22:08 | -29.34045 | -57.86639 | 33953 ft | 383 kts | 248° |
| 2026-05-05 22:08 | -29.36136 | -57.92265 | 33951 ft | 383 kts | 249° |
| 2026-05-05 22:09 | -29.38210 | -57.97848 | 33949 ft | 383 kts | 249° |
| 2026-05-05 22:09 | -29.40297 | -58.03479 | 33948 ft | 383 kts | 249° |
| 2026-05-05 22:10 | -29.42016 | -58.08160 | 33948 ft | 383 kts | 250° |
| 2026-05-05 22:10 | -29.43917 | -58.13859 | 33940 ft | 383 kts | 251° |
| 2026-05-05 22:11 | -29.45777 | -58.19589 | 33942 ft | 383 kts | 251° |
| 2026-05-05 22:11 | -29.47629 | -58.25322 | 33940 ft | 383 kts | 251° |
| 2026-05-05 22:12 | -29.49478 | -58.31047 | 33935 ft | 383 kts | 251° |
| 2026-05-05 22:12 | -29.51332 | -58.36788 | 33938 ft | 383 kts | 251° |
| 2026-05-05 22:13 | -29.53171 | -58.42487 | 33937 ft | 383 kts | 251° |
| 2026-05-05 22:13 | -29.55017 | -58.48223 | 33932 ft | 383 kts | 251° |
| 2026-05-05 22:14 | -29.56861 | -58.53964 | 33931 ft | 383 kts | 251° |
| 2026-05-05 22:14 | -29.58707 | -58.59716 | 33930 ft | 383 kts | 251° |
| 2026-05-05 22:15 | -29.60551 | -58.65469 | 33927 ft | 383 kts | 251° |
| 2026-05-05 22:15 | -29.62379 | -58.71188 | 33924 ft | 383 kts | 251° |
| 2026-05-05 22:16 | -29.64215 | -58.76944 | 33924 ft | 383 kts | 251° |
| 2026-05-05 22:16 | -29.66050 | -58.82704 | 33924 ft | 383 kts | 251° |
| 2026-05-05 22:17 | -29.67883 | -58.88467 | 33916 ft | 384 kts | 251° |
| 2026-05-05 22:17 | -29.69750 | -58.94176 | 33919 ft | 384 kts | 251° |
| 2026-05-05 22:18 | -29.71669 | -58.99923 | 33918 ft | 384 kts | 251° |
| 2026-05-05 22:18 | -29.73577 | -59.05668 | 33914 ft | 384 kts | 251° |
| 2026-05-05 22:19 | -29.75479 | -59.11409 | 33918 ft | 384 kts | 251° |
| 2026-05-05 22:19 | -29.77380 | -59.17160 | 33916 ft | 384 kts | 251° |
| 2026-05-05 22:20 | -29.79274 | -59.22910 | 33913 ft | 384 kts | 251° |
| 2026-05-05 22:20 | -29.81152 | -59.28615 | 33907 ft | 384 kts | 251° |
| 2026-05-05 22:21 | -29.83043 | -59.34370 | 33909 ft | 384 kts | 251° |
| 2026-05-05 22:21 | -29.84929 | -59.40121 | 33912 ft | 384 kts | 251° |
| 2026-05-05 22:22 | -29.86817 | -59.45881 | 33907 ft | 384 kts | 251° |
| 2026-05-05 22:22 | -29.88705 | -59.51654 | 33907 ft | 385 kts | 251° |
| 2026-05-05 22:23 | -29.90592 | -59.57436 | 33903 ft | 385 kts | 251° |
| 2026-05-05 22:23 | -29.92465 | -59.63180 | 33907 ft | 385 kts | 251° |
| 2026-05-05 22:24 | -29.94346 | -59.68966 | 33903 ft | 385 kts | 251° |
| 2026-05-05 22:24 | -29.96230 | -59.74762 | 33896 ft | 385 kts | 251° |
| 2026-05-05 22:25 | -29.98108 | -59.80551 | 33907 ft | 385 kts | 251° |
| 2026-05-05 22:25 | -29.99983 | -59.86345 | 33897 ft | 385 kts | 252° |
| 2026-05-05 22:26 | -30.01853 | -59.92139 | 33896 ft | 385 kts | 252° |
| 2026-05-05 22:26 | -30.03714 | -59.97910 | 33898 ft | 386 kts | 252° |
| 2026-05-05 22:27 | -30.05583 | -60.03712 | 33894 ft | 386 kts | 252° |
| 2026-05-05 22:27 | -30.07454 | -60.09533 | 33888 ft | 386 kts | 252° |
| 2026-05-05 22:28 | -30.09320 | -60.15347 | 33889 ft | 386 kts | 252° |
| 2026-05-05 22:28 | -30.11187 | -60.21172 | 33890 ft | 386 kts | 252° |
| 2026-05-05 22:29 | -30.13036 | -60.26952 | 33892 ft | 387 kts | 252° |
| 2026-05-05 22:29 | -30.14898 | -60.32789 | 33885 ft | 387 kts | 252° |
| 2026-05-05 22:30 | -30.16759 | -60.38626 | 33889 ft | 387 kts | 252° |
| 2026-05-05 22:30 | -30.18619 | -60.44472 | 33880 ft | 387 kts | 252° |
| 2026-05-05 22:31 | -30.20477 | -60.50323 | 33881 ft | 388 kts | 252° |
| 2026-05-05 22:31 | -30.22324 | -60.56142 | 33883 ft | 388 kts | 252° |
| 2026-05-05 22:32 | -30.24180 | -60.62009 | 33878 ft | 388 kts | 252° |
| 2026-05-05 22:32 | -30.26035 | -60.67883 | 33876 ft | 388 kts | 252° |
| 2026-05-05 22:33 | -30.27888 | -60.73755 | 33870 ft | 388 kts | 252° |
| 2026-05-05 22:33 | -30.29737 | -60.79626 | 33875 ft | 388 kts | 252° |
| 2026-05-05 22:34 | -30.31574 | -60.85474 | 33871 ft | 389 kts | 252° |
| 2026-05-05 22:34 | -30.33420 | -60.91360 | 33869 ft | 389 kts | 252° |
| 2026-05-05 22:35 | -30.35264 | -60.97248 | 33869 ft | 389 kts | 253° |
| 2026-05-05 22:35 | -30.37109 | -61.03147 | 33871 ft | 389 kts | 253° |
| 2026-05-05 22:36 | -30.38948 | -61.09044 | 33869 ft | 389 kts | 253° |
| 2026-05-05 22:36 | -30.40793 | -61.14946 | 33866 ft | 390 kts | 253° |
| 2026-05-05 22:37 | -30.42635 | -61.20845 | 33867 ft | 390 kts | 253° |
| 2026-05-05 22:37 | -30.44475 | -61.26752 | 33865 ft | 390 kts | 253° |
| 2026-05-05 22:38 | -30.46302 | -61.32627 | 33865 ft | 390 kts | 253° |
| 2026-05-05 22:38 | -30.48138 | -61.38544 | 33867 ft | 390 kts | 253° |
| 2026-05-05 22:39 | -30.49974 | -61.44466 | 33865 ft | 391 kts | 253° |
| 2026-05-05 22:39 | -30.51809 | -61.50400 | 33862 ft | 391 kts | 253° |
| 2026-05-05 22:40 | -30.53643 | -61.56339 | 33861 ft | 391 kts | 253° |
| 2026-05-05 22:40 | -30.55473 | -61.62288 | 33860 ft | 392 kts | 253° |
| 2026-05-05 22:41 | -30.57306 | -61.68252 | 33858 ft | 393 kts | 253° |
| 2026-05-05 22:41 | -30.59128 | -61.74231 | 33861 ft | 393 kts | 253° |
| 2026-05-05 22:42 | -30.60946 | -61.80215 | 33857 ft | 393 kts | 253° |
| 2026-05-05 22:42 | -30.62763 | -61.86215 | 33860 ft | 393 kts | 253° |
| 2026-05-05 22:43 | -30.64575 | -61.92212 | 33861 ft | 394 kts | 253° |
| 2026-05-05 22:43 | -30.66379 | -61.98188 | 33862 ft | 395 kts | 253° |
| 2026-05-05 22:44 | -30.68194 | -62.04212 | 33863 ft | 395 kts | 253° |
| 2026-05-05 22:44 | -30.70009 | -62.10242 | 33865 ft | 395 kts | 253° |
| 2026-05-05 22:45 | -30.71821 | -62.16271 | 33866 ft | 395 kts | 253° |
| 2026-05-05 22:45 | -30.73633 | -62.22315 | 33870 ft | 395 kts | 253° |
| 2026-05-05 22:46 | -30.75438 | -62.28355 | 33873 ft | 396 kts | 253° |
| 2026-05-05 22:46 | -30.77244 | -62.34408 | 33874 ft | 396 kts | 253° |
| 2026-05-05 22:47 | -30.79051 | -62.40463 | 33871 ft | 396 kts | 253° |
| 2026-05-05 22:47 | -30.80853 | -62.46487 | 33863 ft | 396 kts | 253° |
| 2026-05-05 22:48 | -30.82664 | -62.52545 | 33869 ft | 396 kts | 253° |
| 2026-05-05 22:48 | -30.84472 | -62.58603 | 33874 ft | 396 kts | 253° |
| 2026-05-05 22:49 | -30.86281 | -62.64680 | 33878 ft | 397 kts | 253° |
| 2026-05-05 22:49 | -30.88084 | -62.70755 | 33874 ft | 397 kts | 253° |
| 2026-05-05 22:50 | -30.89884 | -62.76830 | 33874 ft | 397 kts | 253° |
| 2026-05-05 22:50 | -30.91676 | -62.82886 | 33876 ft | 398 kts | 254° |
| 2026-05-05 22:51 | -30.93473 | -62.88973 | 33876 ft | 398 kts | 254° |
| 2026-05-05 22:51 | -30.95274 | -62.95082 | 33882 ft | 398 kts | 254° |
| 2026-05-05 22:52 | -30.97073 | -63.01197 | 33879 ft | 398 kts | 254° |
| 2026-05-05 22:52 | -30.98856 | -63.07273 | 33877 ft | 399 kts | 254° |
| 2026-05-05 22:53 | -31.00660 | -63.13426 | 33875 ft | 399 kts | 254° |
| 2026-05-05 22:53 | -31.02439 | -63.19509 | 33878 ft | 399 kts | 254° |
| 2026-05-05 22:54 | -31.04227 | -63.25644 | 33878 ft | 400 kts | 254° |
| 2026-05-05 22:54 | -31.06016 | -63.31778 | 33878 ft | 400 kts | 254° |
| 2026-05-05 22:55 | -31.07805 | -63.37929 | 33881 ft | 400 kts | 254° |
| 2026-05-05 22:55 | -31.09593 | -63.44092 | 33884 ft | 401 kts | 254° |
| 2026-05-05 22:56 | -31.11379 | -63.50260 | 33885 ft | 401 kts | 254° |
| 2026-05-05 22:56 | -31.12858 | -63.55387 | 33886 ft | 401 kts | 254° |
| 2026-05-05 22:57 | -31.14944 | -63.62619 | 33886 ft | 402 kts | 254° |
| 2026-05-05 22:57 | -31.16712 | -63.68762 | 33891 ft | 402 kts | 254° |
| 2026-05-05 22:58 | -31.18493 | -63.74956 | 33896 ft | 402 kts | 254° |
| 2026-05-05 22:58 | -31.19969 | -63.80108 | 33896 ft | 402 kts | 254° |
| 2026-05-05 22:59 | -31.21739 | -63.86294 | 33903 ft | 402 kts | 254° |
| 2026-05-05 22:59 | -31.23508 | -63.92492 | 33906 ft | 402 kts | 254° |
| 2026-05-05 23:00 | -31.26165 | -64.01812 | 33909 ft | 403 kts | 254° |
| 2026-05-05 23:00 | -31.27929 | -64.08028 | 33905 ft | 403 kts | 254° |
| 2026-05-05 23:01 | -31.29683 | -64.14219 | 33906 ft | 404 kts | 254° |
| 2026-05-05 23:01 | -31.31464 | -64.20438 | 33906 ft | 404 kts | 252° |
| 2026-05-05 23:02 | -31.33539 | -64.26562 | 33901 ft | 405 kts | 250° |
| 2026-05-05 23:02 | -31.35701 | -64.32659 | 33903 ft | 405 kts | 250° |
| 2026-05-05 23:03 | -31.37861 | -64.38748 | 33912 ft | 405 kts | 250° |
| 2026-05-05 23:03 | -31.40012 | -64.44849 | 33924 ft | 405 kts | 250° |
| 2026-05-05 23:04 | -31.42162 | -64.50960 | 33934 ft | 405 kts | 250° |
| 2026-05-05 23:04 | -31.44307 | -64.57060 | 33950 ft | 405 kts | 250° |
| 2026-05-05 23:05 | -31.46435 | -64.63130 | 33956 ft | 405 kts | 250° |
| 2026-05-05 23:05 | -31.48577 | -64.69254 | 33951 ft | 405 kts | 250° |
| 2026-05-05 23:06 | -31.50713 | -64.75357 | 33950 ft | 405 kts | 250° |
| 2026-05-05 23:06 | -31.52846 | -64.81465 | 33952 ft | 405 kts | 250° |
| 2026-05-05 23:07 | -31.54971 | -64.87568 | 33951 ft | 404 kts | 251° |
| 2026-05-05 23:07 | -31.57083 | -64.93640 | 33942 ft | 404 kts | 251° |
| 2026-05-05 23:08 | -31.58835 | -64.98687 | 33936 ft | 404 kts | 251° |
| 2026-05-05 23:08 | -31.60950 | -65.04785 | 33930 ft | 404 kts | 251° |
| 2026-05-05 23:09 | -31.63064 | -65.10899 | 33917 ft | 403 kts | 251° |
| 2026-05-05 23:09 | -31.65171 | -65.17010 | 33901 ft | 404 kts | 251° |
| 2026-05-05 23:10 | -31.67277 | -65.23117 | 33885 ft | 403 kts | 251° |
| 2026-05-05 23:10 | -31.69368 | -65.29182 | 33880 ft | 403 kts | 251° |
| 2026-05-05 23:11 | -31.71466 | -65.35296 | 33867 ft | 403 kts | 251° |
| 2026-05-05 23:11 | -31.73560 | -65.41400 | 33866 ft | 403 kts | 251° |
| 2026-05-05 23:12 | -31.75658 | -65.47506 | 33853 ft | 403 kts | 251° |
| 2026-05-05 23:12 | -31.77753 | -65.53610 | 33849 ft | 403 kts | 251° |
| 2026-05-05 23:13 | -31.79842 | -65.59715 | 33848 ft | 402 kts | 252° |
| 2026-05-05 23:13 | -31.81915 | -65.65827 | 33846 ft | 402 kts | 252° |
| 2026-05-05 23:14 | -31.83972 | -65.71909 | 33839 ft | 402 kts | 252° |
| 2026-05-05 23:14 | -31.86045 | -65.78024 | 33840 ft | 402 kts | 252° |
| 2026-05-05 23:15 | -31.88118 | -65.84147 | 33841 ft | 402 kts | 252° |
| 2026-05-05 23:15 | -31.90183 | -65.90274 | 33842 ft | 402 kts | 252° |
| 2026-05-05 23:16 | -31.92231 | -65.96347 | 33838 ft | 402 kts | 252° |
| 2026-05-05 23:16 | -31.94295 | -66.02476 | 33843 ft | 402 kts | 252° |
| 2026-05-05 23:17 | -31.96355 | -66.08612 | 33844 ft | 402 kts | 252° |
| 2026-05-05 23:17 | -31.98413 | -66.14748 | 33847 ft | 402 kts | 252° |
| 2026-05-05 23:18 | -32.00464 | -66.20879 | 33845 ft | 402 kts | 252° |
| 2026-05-05 23:18 | -32.02500 | -66.26980 | 33844 ft | 402 kts | 252° |
| 2026-05-05 23:19 | -32.04546 | -66.33133 | 33843 ft | 402 kts | 253° |
| 2026-05-05 23:19 | -32.06578 | -66.39285 | 33842 ft | 402 kts | 253° |
| 2026-05-05 23:20 | -32.08623 | -66.45440 | 33840 ft | 403 kts | 253° |
| 2026-05-05 23:20 | -32.10620 | -66.51562 | 33839 ft | 401 kts | 255° |
| 2026-05-05 23:21 | -32.12194 | -66.57868 | 33836 ft | 400 kts | 258° |
| 2026-05-05 23:21 | -32.13677 | -66.64185 | 33837 ft | 400 kts | 258° |
| 2026-05-05 23:22 | -32.15177 | -66.70501 | 33833 ft | 399 kts | 258° |
| 2026-05-05 23:22 | -32.16675 | -66.76827 | 33834 ft | 400 kts | 258° |
| 2026-05-05 23:23 | -32.18159 | -66.83098 | 33836 ft | 400 kts | 258° |
| 2026-05-05 23:23 | -32.19646 | -66.89427 | 33845 ft | 400 kts | 258° |
| 2026-05-05 23:24 | -32.21130 | -66.95755 | 33842 ft | 400 kts | 258° |
| 2026-05-05 23:24 | -32.22623 | -67.02095 | 33847 ft | 400 kts | 258° |
| 2026-05-05 23:25 | -32.24112 | -67.08438 | 33842 ft | 400 kts | 258° |
| 2026-05-05 23:25 | -32.25584 | -67.14728 | 33843 ft | 400 kts | 258° |
| 2026-05-05 23:26 | -32.27068 | -67.21074 | 33842 ft | 400 kts | 258° |
| 2026-05-05 23:26 | -32.28553 | -67.27421 | 33832 ft | 400 kts | 258° |
| 2026-05-05 23:27 | -32.30013 | -67.33770 | 33843 ft | 400 kts | 258° |
| 2026-05-05 23:27 | -32.31464 | -67.40122 | 33841 ft | 400 kts | 258° |
| 2026-05-05 23:28 | -32.32939 | -67.46478 | 33835 ft | 400 kts | 258° |
| 2026-05-05 23:28 | -32.34410 | -67.52784 | 33837 ft | 401 kts | 258° |
| 2026-05-05 23:29 | -32.35888 | -67.59178 | 33840 ft | 400 kts | 258° |
| 2026-05-05 23:29 | -32.37346 | -67.65536 | 33845 ft | 400 kts | 259° |
| 2026-05-05 23:30 | -32.38761 | -67.71852 | 33841 ft | 400 kts | 259° |
| 2026-05-05 23:30 | -32.40209 | -67.78210 | 33844 ft | 400 kts | 259° |
| 2026-05-05 23:31 | -32.41646 | -67.84568 | 33846 ft | 399 kts | 259° |
| 2026-05-05 23:31 | -32.43083 | -67.90914 | 33848 ft | 399 kts | 259° |
| 2026-05-05 23:32 | -32.44522 | -67.97266 | 33853 ft | 399 kts | 259° |
| 2026-05-05 23:32 | -32.45952 | -68.03619 | 33854 ft | 399 kts | 259° |
| 2026-05-05 23:33 | -32.47372 | -68.09928 | 33856 ft | 399 kts | 259° |
| 2026-05-05 23:33 | -32.48800 | -68.16279 | 33857 ft | 399 kts | 259° |
| 2026-05-05 23:34 | -32.50227 | -68.22614 | 33906 ft | 394 kts | 261° |
| 2026-05-05 23:34 | -32.51629 | -68.28814 | 33864 ft | 389 kts | 261° |
| 2026-05-05 23:35 | -32.53014 | -68.35013 | 33863 ft | 389 kts | 261° |
| 2026-05-05 23:35 | -32.54389 | -68.41186 | 33857 ft | 388 kts | 261° |
| 2026-05-05 23:36 | -32.55824 | -68.47361 | 33862 ft | 389 kts | 261° |
| 2026-05-05 23:36 | -32.57247 | -68.53549 | 33868 ft | 388 kts | 261° |
| 2026-05-05 23:37 | -32.58621 | -68.59756 | 33883 ft | 389 kts | 261° |
| 2026-05-05 23:37 | -32.59981 | -68.65971 | 33900 ft | 390 kts | 261° |
| 2026-05-05 23:38 | -32.61346 | -68.72205 | 33905 ft | 390 kts | 261° |
| 2026-05-05 23:38 | -32.62712 | -68.78402 | 33917 ft | 391 kts | 261° |
| 2026-05-05 23:39 | -32.64078 | -68.84652 | 33910 ft | 391 kts | 262° |
| 2026-05-05 23:39 | -32.65429 | -68.90921 | 33910 ft | 392 kts | 262° |
| 2026-05-05 23:40 | -32.66788 | -68.97209 | 33910 ft | 392 kts | 262° |
| 2026-05-05 23:40 | -32.68135 | -69.03485 | 33903 ft | 392 kts | 262° |
| 2026-05-05 23:41 | -32.69477 | -69.09737 | 33897 ft | 394 kts | 262° |
| 2026-05-05 23:41 | -32.70856 | -69.16044 | 33896 ft | 395 kts | 262° |
| 2026-05-05 23:42 | -32.72225 | -69.22368 | 33900 ft | 396 kts | 262° |
| 2026-05-05 23:42 | -32.73577 | -69.28720 | 33915 ft | 397 kts | 262° |
| 2026-05-05 23:43 | -32.74252 | -69.31876 | 33688 ft | 391 kts | 262° |
| 2026-05-05 23:43 | -32.74920 | -69.35003 | 33415 ft | 390 kts | 262° |
| 2026-05-05 23:43 | -32.75582 | -69.38126 | 33157 ft | 390 kts | 262° |
| 2026-05-05 23:43 | -32.76248 | -69.41255 | 32884 ft | 391 kts | 262° |
| 2026-05-05 23:44 | -32.76916 | -69.44383 | 32657 ft | 389 kts | 262° |
| 2026-05-05 23:44 | -32.77354 | -69.46442 | 32478 ft | 387 kts | 262° |
| 2026-05-05 23:44 | -32.78013 | -69.49542 | 32243 ft | 387 kts | 262° |
| 2026-05-05 23:44 | -32.78671 | -69.52648 | 32028 ft | 386 kts | 262° |
| 2026-05-05 23:45 | -32.79328 | -69.55746 | 31809 ft | 386 kts | 262° |
| 2026-05-05 23:45 | -32.79977 | -69.58835 | 31577 ft | 384 kts | 263° |
| 2026-05-05 23:45 | -32.80611 | -69.61914 | 31363 ft | 383 kts | 262° |
| 2026-05-05 23:45 | -32.81240 | -69.64952 | 31141 ft | 382 kts | 262° |
| 2026-05-05 23:46 | -32.81877 | -69.68021 | 30925 ft | 381 kts | 262° |
| 2026-05-05 23:46 | -32.82512 | -69.71080 | 30692 ft | 381 kts | 263° |
| 2026-05-05 23:46 | -32.83152 | -69.74143 | 30451 ft | 383 kts | 262° |
| 2026-05-05 23:46 | -32.83795 | -69.77223 | 30229 ft | 383 kts | 263° |
| 2026-05-05 23:47 | -32.84437 | -69.80294 | 29980 ft | 383 kts | 262° |
| 2026-05-05 23:47 | -32.85079 | -69.83361 | 29496 ft | 380 kts | 262° |
| 2026-05-05 23:47 | -32.85719 | -69.86404 | 28746 ft | 379 kts | 263° |
| 2026-05-05 23:47 | -32.86352 | -69.89450 | 27987 ft | 380 kts | 262° |
| 2026-05-05 23:48 | -32.86984 | -69.92500 | 27184 ft | 379 kts | 262° |
| 2026-05-05 23:48 | -32.87612 | -69.95543 | 26401 ft | 379 kts | 262° |
| 2026-05-05 23:48 | -32.88168 | -69.98569 | 25594 ft | 378 kts | 266° |
| 2026-05-05 23:48 | -32.88343 | -70.01714 | 24755 ft | 375 kts | 276° |
| 2026-05-05 23:49 | -32.88063 | -70.04787 | 23856 ft | 374 kts | 281° |
| 2026-05-05 23:49 | -32.87659 | -70.07810 | 22807 ft | 377 kts | 281° |
| 2026-05-05 23:49 | -32.87250 | -70.10909 | 22219 ft | 383 kts | 281° |
| 2026-05-05 23:49 | -32.86882 | -70.14048 | 21831 ft | 384 kts | 280° |
| 2026-05-05 23:50 | -32.86557 | -70.17198 | 21479 ft | 384 kts | 279° |
| 2026-05-05 23:50 | -32.86251 | -70.20360 | 20998 ft | 385 kts | 279° |
| 2026-05-05 23:50 | -32.85909 | -70.23527 | 20806 ft | 391 kts | 282° |
| 2026-05-05 23:50 | -32.85498 | -70.26778 | 20527 ft | 400 kts | 279° |
| 2026-05-05 23:51 | -32.85259 | -70.30139 | 19685 ft | 422 kts | 277° |
| 2026-05-05 23:51 | -32.85043 | -70.33624 | 19561 ft | 414 kts | 277° |
| 2026-05-05 23:51 | -32.84812 | -70.37045 | 19111 ft | 419 kts | 278° |
| 2026-05-05 23:51 | -32.84562 | -70.40403 | 18353 ft | 400 kts | 279° |
| 2026-05-05 23:52 | -32.84293 | -70.43663 | 17217 ft | 391 kts | 279° |
| 2026-05-05 23:52 | -32.84011 | -70.46846 | 16140 ft | 382 kts | 280° |
| 2026-05-05 23:52 | -32.83732 | -70.49944 | 15412 ft | 375 kts | 279° |
| 2026-05-05 23:52 | -32.83466 | -70.52973 | 14920 ft | 358 kts | 280° |
| 2026-05-05 23:53 | -32.83223 | -70.55793 | 14605 ft | 337 kts | 280° |
| 2026-05-05 23:53 | -32.82982 | -70.58492 | 14281 ft | 320 kts | 281° |
| 2026-05-05 23:53 | -32.82734 | -70.61059 | 13966 ft | 305 kts | 281° |
| 2026-05-05 23:53 | -32.82492 | -70.63511 | 13625 ft | 291 kts | 281° |
| 2026-05-05 23:54 | -32.82262 | -70.65872 | 13100 ft | 285 kts | 281° |
| 2026-05-05 23:54 | -32.82109 | -70.68187 | 12658 ft | 278 kts | 272° |
| 2026-05-05 23:54 | -32.82539 | -70.70411 | 12182 ft | 280 kts | 249° |
| 2026-05-05 23:54 | -32.83693 | -70.72297 | 11574 ft | 288 kts | 230° |
| 2026-05-05 23:55 | -32.85194 | -70.73893 | 10965 ft | 290 kts | 225° |
| 2026-05-05 23:55 | -32.86741 | -70.75438 | 10408 ft | 288 kts | 225° |
| 2026-05-05 23:55 | -32.88252 | -70.76979 | 9860 ft | 285 kts | 226° |
| 2026-05-05 23:55 | -32.89728 | -70.78538 | 9162 ft | 281 kts | 226° |
| 2026-05-05 23:56 | -32.91185 | -70.80060 | 8668 ft | 276 kts | 221° |
| 2026-05-05 23:56 | -32.92887 | -70.81103 | 8475 ft | 276 kts | 202° |
| 2026-05-05 23:56 | -32.94668 | -70.81774 | 8524 ft | 255 kts | 199° |
| 2026-05-05 23:56 | -32.96378 | -70.82052 | 8595 ft | 254 kts | 173° |
| 2026-05-05 23:57 | -32.98112 | -70.81594 | 8543 ft | 254 kts | 166° |
| 2026-05-05 23:57 | -32.99838 | -70.81163 | 8292 ft | 252 kts | 171° |
| 2026-05-05 23:57 | -33.01563 | -70.80870 | 7960 ft | 249 kts | 173° |
| 2026-05-05 23:57 | -33.03281 | -70.80651 | 7610 ft | 246 kts | 175° |
| 2026-05-05 23:58 | -33.04982 | -70.80476 | 7248 ft | 244 kts | 176° |
| 2026-05-05 23:58 | -33.06640 | -70.80313 | 7020 ft | 234 kts | 177° |
| 2026-05-05 23:58 | -33.08244 | -70.80239 | 6762 ft | 227 kts | 179° |
| 2026-05-05 23:58 | -33.09811 | -70.80156 | 6437 ft | 224 kts | 178° |
| 2026-05-05 23:59 | -33.11365 | -70.80074 | 6100 ft | 222 kts | 178° |
| 2026-05-05 23:59 | -33.12898 | -70.79992 | 5769 ft | 219 kts | 178° |
| 2026-05-05 23:59 | -33.14406 | -70.79912 | 5518 ft | 215 kts | 178° |
| 2026-05-05 23:59 | -33.15937 | -70.79830 | 5374 ft | 215 kts | 177° |
| 2026-05-06 00:00 | -33.17392 | -70.79752 | 5208 ft | 205 kts | 177° |
| 2026-05-06 00:00 | -33.18807 | -70.79676 | 5054 ft | 203 kts | 177° |
| 2026-05-06 00:00 | -33.20214 | -70.79600 | 4868 ft | 201 kts | 177° |
| 2026-05-06 00:00 | -33.21585 | -70.79527 | 4622 ft | 193 kts | 177° |
| 2026-05-06 00:01 | -33.22903 | -70.79456 | 4390 ft | 186 kts | 177° |
| 2026-05-06 00:01 | -33.24178 | -70.79388 | 4149 ft | 180 kts | 177° |
| 2026-05-06 00:01 | -33.25396 | -70.79322 | 3939 ft | 171 kts | 177° |
| 2026-05-06 00:01 | -33.26578 | -70.79258 | 3730 ft | 169 kts | 177° |
| 2026-05-06 00:02 | -33.27732 | -70.79195 | 3517 ft | 167 kts | 177° |
| 2026-05-06 00:02 | -33.28836 | -70.79135 | 3343 ft | 146 kts | 178° |
| 2026-05-06 00:02 | -33.29824 | -70.79082 | 3136 ft | 140 kts | 178° |
| 2026-05-06 00:02 | -33.30787 | -70.79030 | 2945 ft | 137 kts | 178° |
| 2026-05-06 00:03 | -33.31736 | -70.78979 | 2766 ft | 136 kts | 178° |
| 2026-05-06 00:03 | -33.32693 | -70.78927 | 2585 ft | 135 kts | 178° |
| 2026-05-06 00:03 | -33.33569 | -70.78879 | 2403 ft | 134 kts | 178° |
| 2026-05-06 00:03 | -33.34508 | -70.78829 | 2206 ft | 133 kts | 177° |
| 2026-05-06 00:04 | -33.35432 | -70.78779 | 2021 ft | 133 kts | 177° |
| 2026-05-06 00:04 | -33.36354 | -70.78729 | 1846 ft | 132 kts | 176° |
| 2026-05-06 00:04 | -33.37271 | -70.78677 | 1669 ft | 132 kts | 176° |
| 2026-05-06 00:04 | -33.38152 | -70.78620 | 1567 ft | 118 kts | 176° |
| 2026-05-06 00:05 | -33.39175 | -70.78579 | 1567 ft | 18 kts | 177° |
| 2026-05-06 00:05 | -33.39289 | -70.78575 | 1567 ft | 19 kts | 182° |
| 2026-05-06 00:05 | -33.39430 | -70.78582 | 1567 ft | 21 kts | 182° |
| 2026-05-06 00:06 | -33.39575 | -70.78626 | 1567 ft | 22 kts | 201° |
| 2026-05-06 00:06 | -33.39677 | -70.78686 | 1568 ft | 16 kts | 207° |
| 2026-05-06 00:06 | -33.39669 | -70.78769 | 1568 ft | 17 kts | 343° |
| 2026-05-06 00:06 | -33.39546 | -70.78781 | 1568 ft | 19 kts | 359° |
| 2026-05-06 00:07 | -33.39418 | -70.78786 | 1568 ft | 6 kts | 354° |
| 2026-05-06 00:07 | -33.39413 | -70.78790 | 1568 ft | 2 kts | 330° |
| 2026-05-06 00:07 | -33.39398 | -70.78824 | 1568 ft | 7 kts | 284° |
| 2026-05-06 00:07 | -33.39399 | -70.78890 | 1567 ft | 9 kts | 268° |
| 2026-05-06 00:08 | -33.39401 | -70.78976 | 1567 ft | 11 kts | 268° |
| 2026-05-06 00:08 | -33.39405 | -70.79079 | 1567 ft | 13 kts | 265° |
| 2026-05-06 00:08 | -33.39410 | -70.79197 | 1567 ft | 15 kts | 268° |
| 2026-05-06 00:08 | -33.39414 | -70.79328 | 1567 ft | 17 kts | 268° |
| 2026-05-06 00:09 | -33.39421 | -70.79472 | 1566 ft | 18 kts | 266° |
| 2026-05-06 00:09 | -33.39487 | -70.79587 | 1566 ft | 19 kts | 202° |
| 2026-05-06 00:09 | -33.39510 | -70.79735 | 1565 ft | 21 kts | 248° |
| 2026-05-06 00:09 | -33.39596 | -70.79792 | 1565 ft | 12 kts | 179° |
| 2026-05-06 00:10 | -33.39679 | -70.79769 | 1565 ft | 12 kts | 111° |
| 2026-05-06 00:10 | -33.39680 | -70.79682 | 1565 ft | 0 kts | 90° |